PWSweather.com
Personal Weather Stations
Station Observations
DW6359
Southwest Cambria, Cambria, WI 53923

Southwest CambriaCambria, WI 53923

Lat: 43.541194, Lon: -89.11275

Elevation: 945

Station Type: Davis Vantage Pro2

http://home.centurytel.net/weathercambria/wxcambria.html

Latest ConditionsUpdated 5:20:13 AM CDT Saturday, May 25, 2019
Currently Today's Max Today's Min Today's Average
Temperature 65.4°F18.6°C 66.2°F19.0°C 60.4°F15.8°C 63.9°F17.7°C
Dew Point 62.1°F16.7°C 62.9°F17.2°C 57.1°F13.9°C 60.7°F15.9°C
Winds Calm Calm 10.0 mph -16.1 kmh - - 1.3 mph 2.1 kmh
Wind Gusts -- 14.0 mph22.5 kmh - -
Humidity 89% 90% 89% 89%
Pressure 29.82 in1009.8 mb 29.89 in1012.2 mb 29.79 in1008.8 mb -
Precipitation - 0.56 in14.2 mm - -
Hour Temp Dew Point Humidity Winds Wind Gusts Pressure Precip Precip Rate Daily Precip Total
05:20 AM 65.4°F18.6°C 62.1°F16.7°C 89% Calm Calm -- 29.82 in1009.8 mb 0.00 in0.0 mm 0.00 in0.0 mm 0.56 in14.2 mm
05:15 AM 65.6°F18.7°C 62.3°F16.8°C 89% Calm Calm -- 29.82 in1009.8 mb 0.00 in0.0 mm 0.00 in0.0 mm 0.56 in14.2 mm
05:10 AM 65.6°F18.7°C 62.3°F16.8°C 89% Calm Calm -- 29.81 in1009.5 mb 0.00 in0.0 mm 0.00 in0.0 mm 0.56 in14.2 mm
05:05 AM 65.6°F18.7°C 62.3°F16.8°C 89% Calm Calm -- 29.82 in1009.8 mb 0.00 in0.0 mm 0.00 in0.0 mm 0.56 in14.2 mm
05:00 AM 65.7°F18.7°C 62.4°F16.9°C 89% Calm Calm -- 29.82 in1009.8 mb 0.01 in0.3 mm 0.00 in0.0 mm 0.56 in14.2 mm
04:55 AM 65.8°F18.8°C 62.5°F16.9°C 89% Calm Calm -- 29.82 in1009.8 mb 0.01 in0.3 mm 0.00 in0.0 mm 0.56 in14.2 mm
04:50 AM 65.8°F18.8°C 62.5°F16.9°C 89% Calm Calm -- 29.82 in1009.8 mb 0.01 in0.3 mm 0.00 in0.0 mm 0.56 in14.2 mm
04:45 AM 66.0°F18.9°C 62.7°F17.1°C 89% Calm Calm -- 29.82 in1009.8 mb 0.01 in0.3 mm 0.00 in0.0 mm 0.56 in14.2 mm
04:40 AM 66.1°F18.9°C 62.8°F17.1°C 89% Calm Calm -- 29.82 in1009.8 mb 0.01 in0.3 mm 0.00 in0.0 mm 0.56 in14.2 mm
04:35 AM 66.2°F19.0°C 62.9°F17.2°C 89% Calm Calm -- 29.82 in1009.8 mb 0.01 in0.3 mm 0.00 in0.0 mm 0.56 in14.2 mm
04:30 AM 66.2°F19.0°C 62.9°F17.2°C 89% Calm Calm -- 29.82 in1009.8 mb 0.01 in0.3 mm 0.00 in0.0 mm 0.56 in14.2 mm
04:25 AM 66.2°F19.0°C 62.9°F17.2°C 89% Calm Calm -- 29.82 in1009.8 mb 0.02 in0.5 mm 0.00 in0.0 mm 0.56 in14.2 mm
04:20 AM 66.1°F18.9°C 62.8°F17.1°C 89% Calm Calm -- 29.82 in1009.8 mb 0.04 in1.0 mm 0.00 in0.0 mm 0.56 in14.2 mm
04:15 AM 66.1°F18.9°C 62.8°F17.1°C 89% Calm Calm -- 29.82 in1009.8 mb 0.05 in1.3 mm 0.00 in0.0 mm 0.56 in14.2 mm
04:10 AM 66.1°F18.9°C 62.8°F17.1°C 89% Calm Calm -- 29.81 in1009.5 mb 0.07 in1.8 mm 0.00 in0.0 mm 0.56 in14.2 mm
04:05 AM 66.0°F18.9°C 62.7°F17.1°C 89% Calm Calm -- 29.81 in1009.5 mb 0.09 in2.3 mm 0.00 in0.0 mm 0.56 in14.2 mm
04:00 AM 66.2°F19.0°C 62.9°F17.2°C 89% Calm Calm -- 29.80 in1009.1 mb 0.10 in2.5 mm 0.00 in0.0 mm 0.55 in14.0 mm
03:55 AM 66.2°F19.0°C 62.9°F17.2°C 89% Calm Calm -- 29.79 in1008.8 mb 0.12 in3.0 mm 0.00 in0.0 mm 0.55 in14.0 mm
03:50 AM 66.1°F18.9°C 62.8°F17.1°C 89% Calm Calm -- 29.81 in1009.5 mb 0.14 in3.6 mm 0.00 in0.0 mm 0.55 in14.0 mm
03:45 AM 66.1°F18.9°C 62.8°F17.1°C 89% Calm Calm 1.0 mph1.6 kmh 29.82 in1009.8 mb 0.16 in4.1 mm 0.00 in0.0 mm 0.55 in14.0 mm
03:40 AM 66.0°F18.9°C 62.7°F17.1°C 89% Calm Calm 1.0 mph1.6 kmh 29.81 in1009.5 mb 0.17 in4.3 mm 0.00 in0.0 mm 0.55 in14.0 mm
03:35 AM 66.1°F18.9°C 62.8°F17.1°C 89% Calm Calm -- 29.82 in1009.8 mb 0.19 in4.8 mm 0.00 in0.0 mm 0.55 in14.0 mm
03:30 AM 66.0°F18.9°C 62.7°F17.1°C 89% Calm Calm -- 29.82 in1009.8 mb 0.20 in5.1 mm 0.12 in3.0 mm 0.55 in14.0 mm
03:25 AM 65.8°F18.8°C 62.5°F16.9°C 89% Calm Calm -- 29.81 in1009.5 mb 0.19 in4.8 mm 0.24 in6.1 mm 0.54 in13.7 mm
03:20 AM 65.6°F18.7°C 62.3°F16.8°C 89% Calm Calm -- 29.82 in1009.8 mb 0.17 in4.3 mm 0.00 in0.0 mm 0.52 in13.2 mm
03:15 AM 65.5°F18.6°C 62.2°F16.8°C 89% Calm Calm -- 29.81 in1009.5 mb 0.17 in4.3 mm 0.12 in3.0 mm 0.51 in13.0 mm
03:10 AM 65.6°F18.7°C 62.3°F16.8°C 89% Calm Calm -- 29.81 in1009.5 mb 0.16 in4.1 mm 0.24 in6.1 mm 0.49 in12.4 mm
03:05 AM 65.6°F18.7°C 62.3°F16.8°C 89% Calm Calm -- 29.81 in1009.5 mb 0.14 in3.6 mm 0.12 in3.0 mm 0.47 in11.9 mm
03:00 AM 65.7°F18.7°C 62.4°F16.9°C 89% Calm Calm -- 29.80 in1009.1 mb 0.13 in3.3 mm 0.00 in0.0 mm 0.45 in11.4 mm
02:55 AM 65.7°F18.7°C 62.4°F16.9°C 89% Calm Calm 5.0 mph8.0 kmh 29.82 in1009.8 mb 0.13 in3.3 mm 0.12 in3.0 mm 0.43 in10.9 mm
02:50 AM 65.6°F18.7°C 62.3°F16.8°C 89% Calm Calm 5.0 mph8.0 kmh 29.82 in1009.8 mb 0.12 in3.0 mm 0.00 in0.0 mm 0.41 in10.4 mm
02:45 AM 65.6°F18.7°C 62.3°F16.8°C 89% Calm Calm -- 29.83 in1010.2 mb 0.12 in3.0 mm 0.00 in0.0 mm 0.39 in9.9 mm
02:40 AM 65.4°F18.6°C 62.1°F16.7°C 89% 2.0 mph S3.2 kmh S -- 29.83 in1010.2 mb 0.13 in3.3 mm 0.12 in3.0 mm 0.38 in9.7 mm
02:35 AM 64.8°F18.2°C 61.5°F16.4°C 89% 4.0 mph S6.4 kmh S -- 29.84 in1010.5 mb 0.12 in3.0 mm 0.00 in0.0 mm 0.36 in9.1 mm
02:30 AM 64.1°F17.8°C 60.8°F16.0°C 89% Calm Calm -- 29.83 in1010.2 mb 0.13 in3.3 mm 0.00 in0.0 mm 0.35 in8.9 mm
02:25 AM 64.0°F17.8°C 60.7°F15.9°C 89% Calm Calm -- 29.81 in1009.5 mb 0.15 in3.8 mm 0.00 in0.0 mm 0.35 in8.9 mm
02:20 AM 63.9°F17.7°C 60.6°F15.9°C 89% Calm Calm -- 29.80 in1009.1 mb 0.17 in4.3 mm 0.00 in0.0 mm 0.35 in8.9 mm
02:15 AM 63.8°F17.7°C 60.5°F15.8°C 89% Calm Calm -- 29.80 in1009.1 mb 0.18 in4.6 mm 0.00 in0.0 mm 0.34 in8.6 mm
02:10 AM 63.8°F17.7°C 60.5°F15.8°C 89% Calm Calm -- 29.82 in1009.8 mb 0.19 in4.8 mm 0.00 in0.0 mm 0.33 in8.4 mm
02:05 AM 63.5°F17.5°C 60.2°F15.7°C 89% 3.0 mph S4.8 kmh S 14.0 mph22.5 kmh 29.82 in1009.8 mb 0.21 in5.3 mm 0.00 in0.0 mm 0.33 in8.4 mm
02:00 AM 63.1°F17.3°C 59.8°F15.4°C 89% 5.0 mph SSE8.0 kmh SSE 14.0 mph22.5 kmh 29.82 in1009.8 mb 0.21 in5.3 mm 0.00 in0.0 mm 0.32 in8.1 mm
01:55 AM 62.6°F17.0°C 59.3°F15.2°C 89% 8.0 mph SE12.9 kmh SE -- 29.82 in1009.8 mb 0.21 in5.3 mm 0.00 in0.0 mm 0.30 in7.6 mm
01:50 AM 62.4°F16.9°C 59.1°F15.1°C 89% 7.0 mph S11.3 kmh S -- 29.83 in1010.2 mb 0.22 in5.6 mm 0.00 in0.0 mm 0.29 in7.4 mm
01:45 AM 62.3°F16.8°C 59.0°F15.0°C 89% 10.0 mph SE16.1 kmh SE -- 29.84 in1010.5 mb 0.22 in5.6 mm 0.00 in0.0 mm 0.27 in6.9 mm
01:40 AM 62.3°F16.8°C 59.0°F15.0°C 89% 4.0 mph SSE6.4 kmh SSE -- 29.84 in1010.5 mb 0.22 in5.6 mm 0.00 in0.0 mm 0.25 in6.4 mm
01:35 AM 62.3°F16.8°C 59.0°F15.0°C 89% Calm Calm -- 29.84 in1010.5 mb 0.23 in5.8 mm 0.12 in3.0 mm 0.24 in6.1 mm
01:30 AM 62.2°F16.8°C 58.9°F14.9°C 89% Calm Calm -- 29.84 in1010.5 mb 0.22 in5.6 mm 0.24 in6.1 mm 0.22 in5.6 mm
01:25 AM 62.2°F16.8°C 58.9°F14.9°C 89% Calm Calm -- 29.85 in1010.8 mb 0.20 in5.1 mm 0.24 in6.1 mm 0.20 in5.1 mm
01:20 AM 62.0°F16.7°C 58.7°F14.8°C 89% 1.0 mph SE1.6 kmh SE -- 29.84 in1010.5 mb 0.18 in4.6 mm 0.24 in6.1 mm 0.18 in4.6 mm
01:15 AM 61.9°F16.6°C 58.6°F14.8°C 89% 4.0 mph SE6.4 kmh SE 7.0 mph11.3 kmh 29.84 in1010.5 mb 0.16 in4.1 mm 0.24 in6.1 mm 0.16 in4.1 mm
01:10 AM 61.9°F16.6°C 58.6°F14.8°C 89% 3.0 mph SSE4.8 kmh SSE 7.0 mph11.3 kmh 29.84 in1010.5 mb 0.14 in3.6 mm 0.24 in6.1 mm 0.14 in3.6 mm
01:05 AM 61.6°F16.4°C 58.3°F14.6°C 89% Calm Calm -- 29.86 in1011.2 mb 0.12 in3.0 mm 0.12 in3.0 mm 0.12 in3.0 mm
01:00 AM 61.3°F16.3°C 58.0°F14.4°C 89% Calm Calm -- 29.85 in1010.8 mb 0.11 in2.8 mm 0.02 in0.5 mm 0.11 in2.8 mm
12:55 AM 61.0°F16.1°C 57.7°F14.3°C 89% Calm Calm -- 29.85 in1010.8 mb 0.09 in2.3 mm 0.24 in6.1 mm 0.09 in2.3 mm
12:50 AM 60.6°F15.9°C 57.6°F14.2°C 90% Calm Calm -- 29.88 in1011.9 mb 0.07 in1.8 mm 0.24 in6.1 mm 0.07 in1.8 mm
12:45 AM 60.6°F15.9°C 57.3°F14.1°C 89% Calm Calm -- 29.88 in1011.9 mb 0.05 in1.3 mm 0.24 in6.1 mm 0.05 in1.3 mm
12:40 AM 60.7°F15.9°C 57.4°F14.1°C 89% Calm Calm -- 29.88 in1011.9 mb 0.03 in0.8 mm 0.24 in6.1 mm 0.03 in0.8 mm
12:35 AM 60.7°F15.9°C 57.4°F14.1°C 89% 3.0 mph WNW4.8 kmh WNW -- 29.89 in1012.2 mb 0.01 in0.3 mm 0.12 in3.0 mm 0.01 in0.3 mm
12:30 AM 60.8°F16.0°C 57.5°F14.2°C 89% 5.0 mph NW8.0 kmh NW -- 29.88 in1011.9 mb 0.00 in0.0 mm 0.00 in0.0 mm 0.00 in0.0 mm
12:25 AM 60.7°F15.9°C 57.4°F14.1°C 89% 3.0 mph SSE4.8 kmh SSE 13.0 mph20.9 kmh 29.87 in1011.5 mb 0.00 in0.0 mm 0.00 in0.0 mm 0.00 in0.0 mm
12:20 AM 60.5°F15.8°C 57.2°F14.0°C 89% 5.0 mph SE8.0 kmh SE 13.0 mph20.9 kmh 29.86 in1011.2 mb 0.00 in0.0 mm 0.00 in0.0 mm 0.00 in0.0 mm
12:15 AM 60.4°F15.8°C 57.5°F14.2°C 90% 4.0 mph SSE6.4 kmh SSE -- 29.87 in1011.5 mb 0.00 in0.0 mm 0.00 in0.0 mm 0.00 in0.0 mm
12:10 AM 60.4°F15.8°C 57.1°F13.9°C 89% 3.0 mph SE4.8 kmh SE -- 29.87 in1011.5 mb 0.00 in0.0 mm 0.00 in0.0 mm 0.00 in0.0 mm
12:05 AM 60.4°F15.8°C 57.1°F13.9°C 89% 5.0 mph E8.0 kmh E -- 29.86 in1011.2 mb 0.00 in0.0 mm 0.00 in0.0 mm 0.00 in0.0 mm
12:00 AM 60.5°F15.8°C 57.2°F14.0°C 89% 4.0 mph ESE6.4 kmh ESE -- 29.86 in1011.2 mb 0.00 in0.0 mm 0.00 in0.0 mm 0.00 in0.0 mm